Time;durP1;ratioP1;P1;durP2;ratioP2;P2;SDS_P1;SDS_P2;PMS_P1;PMS_P2;Temp;Humidity;BMP_temperature;BMP_pressure;BME280_temperature;BME280_humidity;BME280_pressure;Samples;Min_cycle;Max_cycle;Signal;HPM_P1;HPM_P2
2024/01/16 00:00:14;;;;;;;3.53;0.95;;;;;;;;;;5085882;28;20445;-80
2024/01/16 00:02:40;;;;;;;9.18;1.70;;;;;;;;;;5072563;28;20036;-81
2024/01/16 00:05:06;;;;;;;5.13;1.13;;;;;;;;;;5067822;28;20036;-80
2024/01/16 00:07:35;;;;;;;9.25;1.20;;;;;;;;;;5051904;28;20068;-80
2024/01/16 00:10:01;;;;;;;8.63;1.20;;;;;;;;;;5089175;28;20042;-81
2024/01/16 00:12:27;;;;;;;5.20;0.82;;;;;;;;;;5050588;28;20044;-76
2024/01/16 00:14:53;;;;;;;6.25;0.93;;;;;;;;;;5076968;28;20055;-79
2024/01/16 00:17:19;;;;;;;5.93;1.05;;;;;;;;;;5066193;28;20154;-80
2024/01/16 00:19:45;;;;;;;7.82;1.63;;;;;;;;;;5067039;28;20040;-82
2024/01/16 00:22:11;;;;;;;8.25;1.30;;;;;;;;;;5066897;28;20042;-82
2024/01/16 00:24:37;;;;;;;8.95;1.42;;;;;;;;;;5081371;28;20174;-82
2024/01/16 00:27:03;;;;;;;13.43;1.52;;;;;;;;;;5071175;28;20406;-82
2024/01/16 00:29:30;;;;;;;6.57;1.48;;;;;;;;;;5066355;28;20044;-80
2024/01/16 00:31:56;;;;;;;10.73;1.67;;;;;;;;;;5076569;28;20140;-82
2024/01/16 00:34:23;;;;;;;12.73;1.60;;;;;;;;;;5073343;28;20422;-83
2024/01/16 00:36:49;;;;;;;10.85;1.33;;;;;;;;;;5080482;28;20093;-83
2024/01/16 00:39:15;;;;;;;15.75;2.10;;;;;;;;;;5084040;28;20056;-81
2024/01/16 00:41:41;;;;;;;7.72;1.77;;;;;;;;;;5063645;28;20089;-80
2024/01/16 00:44:07;;;;;;;14.40;1.92;;;;;;;;;;5066879;28;20039;-81
2024/01/16 00:46:34;;;;;;;7.75;1.20;;;;;;;;;;5066455;28;20032;-83
2024/01/16 00:49:00;;;;;;;8.73;1.33;;;;;;;;;;5083614;28;20040;-83
2024/01/16 00:51:26;;;;;;;7.43;1.42;;;;;;;;;;5069749;28;20397;-83
2024/01/16 00:53:52;;;;;;;8.02;1.13;;;;;;;;;;5070346;28;20044;-78
2024/01/16 00:56:18;;;;;;;7.30;1.00;;;;;;;;;;5070483;28;20039;-83
2024/01/16 00:58:44;;;;;;;9.63;1.52;;;;;;;;;;5048735;28;20040;-84
2024/01/16 01:01:10;;;;;;;10.60;1.42;;;;;;;;;;5050689;28;20101;-83
2024/01/16 01:03:36;;;;;;;5.45;1.10;;;;;;;;;;5075344;28;20040;-83
2024/01/16 01:06:02;;;;;;;10.70;1.50;;;;;;;;;;5064821;28;20044;-82
2024/01/16 01:08:28;;;;;;;14.10;1.75;;;;;;;;;;5086005;28;20055;-84
2024/01/16 01:10:54;;;;;;;8.65;1.35;;;;;;;;;;5068960;28;20404;-83
2024/01/16 01:13:20;;;;;;;10.13;1.33;;;;;;;;;;5065454;28;20057;-83
2024/01/16 01:15:47;;;;;;;7.35;1.67;;;;;;;;;;5066263;28;20614;-83
2024/01/16 01:18:13;;;;;;;7.85;1.52;;;;;;;;;;5065256;28;20032;-84
2024/01/16 01:20:39;;;;;;;9.43;1.60;;;;;;;;;;5066687;28;20177;-78
2024/01/16 01:23:05;;;;;;;10.15;1.40;;;;;;;;;;5085935;28;20494;-84
2024/01/16 01:25:31;;;;;;;8.20;1.27;;;;;;;;;;5066112;28;20088;-81
2024/01/16 01:27:57;;;;;;;9.85;1.38;;;;;;;;;;5080997;28;20080;-84
2024/01/16 01:30:23;;;;;;;8.27;0.95;;;;;;;;;;5070336;28;20043;-83
2024/01/16 01:32:49;;;;;;;4.53;1.10;;;;;;;;;;5074757;28;20082;-83
2024/01/16 01:35:19;;;;;;;7.60;1.25;;;;;;;;;;5070124;28;20040;-83
2024/01/16 01:37:45;;;;;;;3.90;0.75;;;;;;;;;;5063418;28;20092;-81
2024/01/16 01:40:12;;;;;;;7.53;0.75;;;;;;;;;;5055067;28;20571;-83
2024/01/16 01:42:38;;;;;;;6.78;0.82;;;;;;;;;;5091056;28;20070;-84
2024/01/16 01:45:05;;;;;;;8.40;1.27;;;;;;;;;;5073156;28;20122;-83
2024/01/16 01:47:31;;;;;;;4.57;0.80;;;;;;;;;;5084140;28;20134;-83
2024/01/16 01:49:57;;;;;;;7.20;1.20;;;;;;;;;;5071715;28;20054;-80
2024/01/16 01:52:24;;;;;;;6.70;1.10;;;;;;;;;;5050007;28;20044;-83
2024/01/16 01:54:52;;;;;;;6.70;1.27;;;;;;;;;;5080938;28;20047;-81
2024/01/16 01:57:19;;;;;;;8.07;0.82;;;;;;;;;;5073892;28;20501;-83
2024/01/16 01:59:46;;;;;;;9.52;1.40;;;;;;;;;;5070376;28;20040;-82
2024/01/16 02:02:12;;;;;;;8.82;1.13;;;;;;;;;;5069549;28;20115;-78
2024/01/16 02:04:39;;;;;;;6.95;1.08;;;;;;;;;;5071897;28;20032;-83
2024/01/16 02:07:05;;;;;;;6.47;0.88;;;;;;;;;;5065509;28;20044;-84
2024/01/16 02:09:32;;;;;;;8.30;2.50;;;;;;;;;;5072185;28;20052;-80
2024/01/16 02:11:58;;;;;;;5.40;0.90;;;;;;;;;;5091179;28;20040;-81
2024/01/16 02:14:24;;;;;;;3.60;0.80;;;;;;;;;;5085979;28;20538;-83
2024/01/16 02:16:50;;;;;;;12.07;1.27;;;;;;;;;;5071777;28;20136;-82
2024/01/16 02:19:16;;;;;;;9.70;1.08;;;;;;;;;;5073334;28;20039;-83
2024/01/16 02:21:46;;;;;;;5.57;1.15;;;;;;;;;;5081489;28;20046;-78
2024/01/16 02:24:12;;;;;;;6.38;1.10;;;;;;;;;;5085336;28;20038;-82
2024/01/16 02:26:38;;;;;;;11.60;1.10;;;;;;;;;;5089594;28;20035;-84
2024/01/16 02:29:04;;;;;;;6.72;1.13;;;;;;;;;;5070972;28;20566;-83
2024/01/16 02:31:31;;;;;;;8.65;1.10;;;;;;;;;;5068218;28;20177;-83
2024/01/16 02:33:58;;;;;;;9.88;2.22;;;;;;;;;;5072583;28;20040;-83
2024/01/16 02:36:24;;;;;;;8.55;1.10;;;;;;;;;;5068407;28;20047;-84
2024/01/16 02:38:50;;;;;;;6.30;0.95;;;;;;;;;;5069353;28;20028;-83
2024/01/16 02:41:16;;;;;;;6.50;0.77;;;;;;;;;;5099113;28;21843;-81
2024/01/16 02:43:42;;;;;;;9.13;1.10;;;;;;;;;;5081496;28;20039;-80
2024/01/16 02:46:08;;;;;;;5.22;0.75;;;;;;;;;;5082381;28;20060;-83
2024/01/16 02:48:35;;;;;;;10.98;1.27;;;;;;;;;;5065263;28;20036;-84
2024/01/16 02:51:01;;;;;;;4.22;0.60;;;;;;;;;;5064391;28;20383;-84
2024/01/16 02:53:28;;;;;;;3.03;0.60;;;;;;;;;;5087808;28;20523;-82
2024/01/16 02:55:54;;;;;;;6.40;1.08;;;;;;;;;;5063697;28;20040;-84
2024/01/16 02:58:24;;;;;;;10.18;1.13;;;;;;;;;;5069803;28;20040;-84
2024/01/16 03:00:50;;;;;;;6.22;0.93;;;;;;;;;;5096965;28;20033;-84
2024/01/16 03:03:16;;;;;;;6.93;1.00;;;;;;;;;;5085219;28;20074;-80
2024/01/16 03:05:42;;;;;;;13.27;1.45;;;;;;;;;;5081471;28;20043;-83
2024/01/16 03:08:08;;;;;;;9.52;1.00;;;;;;;;;;5069007;28;20399;-83
2024/01/16 03:10:34;;;;;;;5.10;0.90;;;;;;;;;;5067346;28;20036;-82
2024/01/16 03:13:00;;;;;;;3.65;0.90;;;;;;;;;;5070266;28;20040;-84
2024/01/16 03:15:26;;;;;;;7.00;1.35;;;;;;;;;;5081136;28;20052;-79
2024/01/16 03:17:53;;;;;;;4.72;0.90;;;;;;;;;;5083749;28;20805;-81
2024/01/16 03:20:19;;;;;;;4.90;0.90;;;;;;;;;;5066771;28;20042;-83
2024/01/16 03:22:45;;;;;;;2.50;0.73;;;;;;;;;;5071355;28;20074;-80
2024/01/16 03:25:12;;;;;;;6.97;1.10;;;;;;;;;;5084899;28;20051;-84
2024/01/16 03:27:38;;;;;;;7.20;1.13;;;;;;;;;;5089526;28;20131;-82
2024/01/16 03:30:05;;;;;;;9.00;0.77;;;;;;;;;;5084327;28;20052;-81
2024/01/16 03:32:31;;;;;;;10.50;1.88;;;;;;;;;;5069086;28;20036;-83
2024/01/16 03:34:57;;;;;;;12.23;1.52;;;;;;;;;;5084805;28;20140;-83
2024/01/16 03:37:23;;;;;;;8.07;1.35;;;;;;;;;;5093436;28;20044;-82
2024/01/16 03:39:50;;;;;;;8.32;1.20;;;;;;;;;;5073495;28;20036;-84
2024/01/16 03:42:16;;;;;;;7.63;1.25;;;;;;;;;;5050130;28;20047;-83
2024/01/16 03:44:42;;;;;;;4.97;0.75;;;;;;;;;;5085878;28;20032;-82
2024/01/16 03:47:09;;;;;;;5.90;0.88;;;;;;;;;;5066067;28;20053;-82
2024/01/16 03:49:35;;;;;;;6.07;1.45;;;;;;;;;;5081311;28;20032;-84
2024/01/16 03:52:01;;;;;;;6.38;0.70;;;;;;;;;;5085894;28;20044;-83
2024/01/16 03:54:28;;;;;;;9.18;1.42;;;;;;;;;;5083446;28;20044;-83
2024/01/16 03:56:54;;;;;;;8.25;1.10;;;;;;;;;;5054576;28;20048;-84
2024/01/16 03:59:20;;;;;;;4.53;1.08;;;;;;;;;;5069077;28;20494;-84
2024/01/16 04:01:47;;;;;;;1.63;0.60;;;;;;;;;;5087333;28;20038;-84
2024/01/16 04:04:14;;;;;;;4.10;0.90;;;;;;;;;;5089769;28;20036;-84
2024/01/16 04:06:40;;;;;;;8.07;1.08;;;;;;;;;;5069297;28;20041;-84
2024/01/16 04:09:06;;;;;;;4.75;0.90;;;;;;;;;;5086896;28;20131;-84
2024/01/16 04:11:32;;;;;;;8.98;1.60;;;;;;;;;;5070423;28;20048;-80
2024/01/16 04:13:58;;;;;;;2.60;0.80;;;;;;;;;;5086960;28;20033;-84
2024/01/16 04:16:24;;;;;;;13.40;1.45;;;;;;;;;;5060064;28;20048;-84
2024/01/16 04:18:50;;;;;;;8.95;1.10;;;;;;;;;;5075124;28;20036;-85
2024/01/16 04:21:16;;;;;;;10.23;1.40;;;;;;;;;;5053252;28;20044;-84
2024/01/16 04:23:43;;;;;;;14.65;1.58;;;;;;;;;;5088022;28;20130;-83
2024/01/16 04:26:09;;;;;;;7.30;1.13;;;;;;;;;;5052104;28;20056;-81
2024/01/16 04:28:37;;;;;;;17.88;2.00;;;;;;;;;;5059176;28;20038;-80
2024/01/16 04:31:03;;;;;;;9.13;1.58;;;;;;;;;;5053628;28;20437;-80
2024/01/16 04:33:29;;;;;;;6.30;0.82;;;;;;;;;;5072989;28;20039;-83
2024/01/16 04:35:56;;;;;;;3.60;0.68;;;;;;;;;;5054031;28;20044;-85
2024/01/16 04:38:22;;;;;;;10.30;1.20;;;;;;;;;;5065719;28;20106;-84
2024/01/16 04:40:48;;;;;;;12.00;2.25;;;;;;;;;;5057665;28;20028;-81
2024/01/16 04:43:14;;;;;;;9.40;1.60;;;;;;;;;;5064806;28;20039;-84
2024/01/16 04:45:40;;;;;;;5.47;1.02;;;;;;;;;;5084030;28;20135;-83
2024/01/16 04:48:08;;;;;;;7.97;1.38;;;;;;;;;;5078258;28;20048;-82
2024/01/16 04:50:34;;;;;;;11.30;1.83;;;;;;;;;;5066195;28;20127;-84
2024/01/16 04:53:01;;;;;;;7.97;1.50;;;;;;;;;;5051013;28;20040;-84
2024/01/16 04:55:27;;;;;;;6.40;1.75;;;;;;;;;;5060497;28;20047;-80
2024/01/16 04:57:54;;;;;;;10.80;1.08;;;;;;;;;;5062549;28;20035;-84
2024/01/16 05:00:20;;;;;;;5.85;0.90;;;;;;;;;;5072525;28;20032;-81
2024/01/16 05:02:46;;;;;;;9.20;1.27;;;;;;;;;;5074770;28;20483;-83
2024/01/16 05:05:13;;;;;;;9.77;1.58;;;;;;;;;;5068105;28;20411;-79
2024/01/16 05:07:39;;;;;;;6.30;1.50;;;;;;;;;;5081103;28;20047;-82
2024/01/16 05:10:06;;;;;;;7.35;1.52;;;;;;;;;;5088844;28;20044;-79
2024/01/16 05:12:32;;;;;;;8.73;1.38;;;;;;;;;;5086685;28;20055;-79
2024/01/16 05:14:58;;;;;;;12.43;1.63;;;;;;;;;;5089041;28;20059;-81
2024/01/16 05:17:24;;;;;;;20.02;2.55;;;;;;;;;;5068411;28;20489;-83
2024/01/16 05:19:50;;;;;;;6.43;1.20;;;;;;;;;;5068024;28;20152;-83
2024/01/16 05:22:16;;;;;;;10.02;1.48;;;;;;;;;;5071474;28;21134;-77
2024/01/16 05:24:42;;;;;;;17.73;1.27;;;;;;;;;;5073576;28;20028;-85
2024/01/16 05:27:09;;;;;;;11.65;1.65;;;;;;;;;;5070779;28;20079;-82
2024/01/16 05:29:38;;;;;;;11.38;1.42;;;;;;;;;;5070419;28;20044;-84
2024/01/16 05:32:05;;;;;;;15.30;1.35;;;;;;;;;;5074454;28;20043;-83
2024/01/16 05:34:31;;;;;;;8.40;1.10;;;;;;;;;;5053655;28;20112;-83
2024/01/16 05:36:57;;;;;;;21.85;1.52;;;;;;;;;;5055243;28;20048;-78
2024/01/16 05:39:23;;;;;;;10.18;1.25;;;;;;;;;;5091536;28;20036;-84
2024/01/16 05:41:49;;;;;;;12.35;1.67;;;;;;;;;;5092944;28;20042;-83
2024/01/16 05:44:15;;;;;;;9.70;1.38;;;;;;;;;;5093379;28;20118;-83
2024/01/16 05:46:42;;;;;;;4.35;1.23;;;;;;;;;;5099189;28;20114;-84
2024/01/16 05:49:08;;;;;;;7.25;1.42;;;;;;;;;;5087339;28;20044;-83
2024/01/16 05:51:34;;;;;;;11.18;1.92;;;;;;;;;;5049516;28;20044;-82
2024/01/16 05:54:00;;;;;;;9.15;1.13;;;;;;;;;;5087915;28;20042;-83
2024/01/16 05:56:26;;;;;;;6.40;1.38;;;;;;;;;;5076852;28;20039;-85
2024/01/16 05:58:52;;;;;;;8.25;1.10;;;;;;;;;;5057060;28;20098;-84
2024/01/16 06:01:18;;;;;;;11.98;1.38;;;;;;;;;;5070179;28;20123;-80
2024/01/16 06:03:46;;;;;;;3.97;0.90;;;;;;;;;;5073444;28;20032;-85
2024/01/16 06:06:12;;;;;;;8.70;1.67;;;;;;;;;;5082556;28;20044;-81
2024/01/16 06:08:38;;;;;;;14.38;1.15;;;;;;;;;;5068791;28;20045;-84
2024/01/16 06:11:04;;;;;;;8.68;1.48;;;;;;;;;;5070547;28;20479;-78
2024/01/16 06:13:32;;;;;;;12.00;2.65;;;;;;;;;;5051859;28;20112;-78
2024/01/16 06:15:58;;;;;;;12.40;1.40;;;;;;;;;;5071002;28;20079;-77
2024/01/16 06:18:24;;;;;;;10.23;1.45;;;;;;;;;;5071241;28;20043;-77
2024/01/16 06:20:50;;;;;;;9.27;1.60;;;;;;;;;;5089181;28;20046;-78
2024/01/16 06:23:16;;;;;;;12.65;2.10;;;;;;;;;;5083713;28;20032;-80
2024/01/16 06:25:42;;;;;;;6.90;1.10;;;;;;;;;;5057892;28;20072;-77
2024/01/16 06:28:08;;;;;;;6.72;1.10;;;;;;;;;;5073163;28;20044;-77
2024/01/16 06:30:34;;;;;;;14.55;1.15;;;;;;;;;;5072006;28;20477;-77
2024/01/16 06:33:00;;;;;;;8.32;1.88;;;;;;;;;;5073950;28;20063;-77
2024/01/16 06:35:26;;;;;;;14.00;1.60;;;;;;;;;;5064196;28;20119;-76
2024/01/16 06:37:52;;;;;;;10.65;1.80;;;;;;;;;;5074680;28;20031;-77
2024/01/16 06:40:18;;;;;;;5.95;1.17;;;;;;;;;;5068027;28;20063;-76
2024/01/16 06:42:44;;;;;;;10.95;2.10;;;;;;;;;;5070730;28;20044;-79
2024/01/16 06:45:12;;;;;;;8.40;1.48;;;;;;;;;;5062224;28;20135;-77
2024/01/16 06:47:39;;;;;;;10.73;1.50;;;;;;;;;;5070887;28;20040;-77
2024/01/16 06:50:05;;;;;;;35.40;2.58;;;;;;;;;;5072262;28;20120;-77
2024/01/16 06:52:32;;;;;;;6.43;1.30;;;;;;;;;;5066670;28;20085;-77
2024/01/16 06:54:58;;;;;;;17.42;2.00;;;;;;;;;;5067129;28;20165;-78
2024/01/16 06:57:24;;;;;;;10.05;2.38;;;;;;;;;;5079365;28;20048;-77
2024/01/16 06:59:50;;;;;;;9.98;1.70;;;;;;;;;;5075207;28;20036;-78
2024/01/16 07:02:16;;;;;;;11.00;1.55;;;;;;;;;;5082353;28;20039;-77
2024/01/16 07:04:42;;;;;;;13.02;1.63;;;;;;;;;;5064505;28;20506;-78
2024/01/16 07:07:08;;;;;;;16.55;1.48;;;;;;;;;;5086466;28;20705;-77
2024/01/16 07:09:35;;;;;;;10.13;1.80;;;;;;;;;;5081818;28;20405;-76
2024/01/16 07:12:03;;;;;;;14.18;2.40;;;;;;;;;;5083438;28;20973;-77
2024/01/16 07:14:29;;;;;;;8.57;1.60;;;;;;;;;;5079459;28;20036;-78
2024/01/16 07:16:55;;;;;;;6.85;1.35;;;;;;;;;;5088579;28;20059;-77
2024/01/16 07:19:21;;;;;;;15.90;1.95;;;;;;;;;;5070612;28;20043;-77
2024/01/16 07:21:48;;;;;;;12.43;1.73;;;;;;;;;;5069588;28;20504;-74
2024/01/16 07:24:14;;;;;;;13.02;1.42;;;;;;;;;;5050955;28;20044;-75
2024/01/16 07:26:41;;;;;;;12.48;1.27;;;;;;;;;;5096712;28;20031;-75
2024/01/16 07:29:07;;;;;;;13.60;1.73;;;;;;;;;;5068805;28;20066;-75
2024/01/16 07:31:33;;;;;;;10.68;1.80;;;;;;;;;;5085308;28;20047;-77
2024/01/16 07:33:59;;;;;;;19.38;2.20;;;;;;;;;;5087052;28;20492;-76
2024/01/16 07:36:25;;;;;;;6.93;2.00;;;;;;;;;;5051788;28;20044;-76
2024/01/16 07:38:51;;;;;;;5.55;1.75;;;;;;;;;;5088574;28;20083;-76
2024/01/16 07:41:17;;;;;;;14.60;2.22;;;;;;;;;;5080571;28;20032;-76
2024/01/16 07:43:43;;;;;;;14.15;2.10;;;;;;;;;;5070664;28;20036;-76
2024/01/16 07:46:09;;;;;;;8.43;2.10;;;;;;;;;;5070574;28;20044;-77
2024/01/16 07:48:35;;;;;;;15.38;3.25;;;;;;;;;;5081462;28;20036;-75
2024/01/16 07:51:01;;;;;;;8.98;1.45;;;;;;;;;;5074549;28;20048;-76
2024/01/16 07:53:27;;;;;;;11.55;1.35;;;;;;;;;;5059316;28;20048;-77
2024/01/16 07:55:54;;;;;;;8.90;1.45;;;;;;;;;;5084667;28;20100;-83
2024/01/16 07:58:21;;;;;;;10.68;1.52;;;;;;;;;;5090066;28;20487;-81
2024/01/16 08:00:47;;;;;;;8.27;2.15;;;;;;;;;;5067782;28;20037;-80
2024/01/16 08:03:14;;;;;;;6.32;1.25;;;;;;;;;;5091580;28;20045;-80
2024/01/16 08:05:40;;;;;;;9.38;1.70;;;;;;;;;;5070114;28;20391;-81
2024/01/16 08:08:10;;;;;;;5.78;1.33;;;;;;;;;;5066753;28;20040;-80
2024/01/16 08:10:36;;;;;;;8.77;1.30;;;;;;;;;;5084805;28;20170;-80
2024/01/16 08:13:03;;;;;;;8.82;2.67;;;;;;;;;;5083725;28;20119;-82
2024/01/16 08:15:29;;;;;;;14.73;1.92;;;;;;;;;;5072776;28;20140;-81
2024/01/16 08:17:55;;;;;;;10.48;1.38;;;;;;;;;;5070033;28;20143;-80
2024/01/16 08:20:22;;;;;;;15.60;2.08;;;;;;;;;;5066385;28;20032;-79
2024/01/16 08:22:50;;;;;;;8.73;1.30;;;;;;;;;;5064821;28;20113;-81
2024/01/16 08:25:16;;;;;;;9.02;1.73;;;;;;;;;;5075020;28;20040;-79
2024/01/16 08:27:43;;;;;;;7.68;1.05;;;;;;;;;;5067368;28;20040;-79
2024/01/16 08:30:12;;;;;;;8.60;1.38;;;;;;;;;;5053419;28;20044;-79
2024/01/16 08:32:38;;;;;;;9.48;0.77;;;;;;;;;;5045350;28;20072;-81
2024/01/16 08:35:05;;;;;;;8.05;1.17;;;;;;;;;;5085533;28;20502;-81
2024/01/16 08:37:32;;;;;;;2.17;0.60;;;;;;;;;;5084060;28;20036;-81
2024/01/16 08:39:58;;;;;;;4.45;1.20;;;;;;;;;;5059289;28;20494;-80
2024/01/16 08:42:24;;;;;;;8.25;1.15;;;;;;;;;;5055023;28;20036;-80
2024/01/16 08:44:50;;;;;;;7.97;1.70;;;;;;;;;;5087481;28;20173;-80
2024/01/16 08:47:16;;;;;;;6.60;2.10;;;;;;;;;;5088242;28;20040;-81
2024/01/16 08:49:43;;;;;;;8.48;2.50;;;;;;;;;;5060277;28;20044;-79
2024/01/16 08:52:10;;;;;;;9.35;1.77;;;;;;;;;;5090507;28;20047;-79
2024/01/16 08:54:37;;;;;;;7.55;2.53;;;;;;;;;;5085080;28;20036;-76
2024/01/16 08:57:04;;;;;;;12.57;2.63;;;;;;;;;;5069554;28;20040;-77
2024/01/16 08:59:31;;;;;;;11.10;1.58;;;;;;;;;;5091135;28;20071;-78
2024/01/16 09:01:57;;;;;;;7.28;1.85;;;;;;;;;;5058456;28;20036;-78
2024/01/16 09:04:23;;;;;;;4.82;1.23;;;;;;;;;;5077462;28;20120;-79
2024/01/16 09:06:49;;;;;;;6.07;1.27;;;;;;;;;;5076740;28;20039;-77
2024/01/16 09:09:15;;;;;;;8.10;1.20;;;;;;;;;;5086092;28;20127;-79
2024/01/16 09:11:42;;;;;;;7.43;1.42;;;;;;;;;;5089242;28;20044;-78
2024/01/16 09:14:08;;;;;;;10.48;1.67;;;;;;;;;;5081017;28;20080;-77
2024/01/16 09:16:35;;;;;;;4.70;1.55;;;;;;;;;;5069280;28;20090;-78
2024/01/16 09:19:01;;;;;;;8.05;2.22;;;;;;;;;;5088043;28;20048;-79
2024/01/16 09:21:28;;;;;;;8.00;1.55;;;;;;;;;;5088849;28;20498;-79
2024/01/16 09:23:54;;;;;;;6.57;1.23;;;;;;;;;;5090331;28;20557;-78
2024/01/16 09:26:20;;;;;;;8.07;2.00;;;;;;;;;;5070560;28;20040;-78
2024/01/16 09:28:46;;;;;;;7.30;1.30;;;;;;;;;;5061142;28;20036;-77
2024/01/16 09:31:16;;;;;;;5.55;1.40;;;;;;;;;;5090765;28;20435;-77
2024/01/16 09:33:43;;;;;;;11.13;1.70;;;;;;;;;;5091119;28;20467;-77
2024/01/16 09:36:09;;;;;;;6.97;1.40;;;;;;;;;;5053070;28;20048;-78
2024/01/16 09:38:35;;;;;;;8.73;1.38;;;;;;;;;;5085380;28;20031;-78
2024/01/16 09:41:02;;;;;;;8.07;1.75;;;;;;;;;;5076773;28;20514;-77
2024/01/16 09:43:29;;;;;;;4.07;1.23;;;;;;;;;;5057372;28;20038;-77
2024/01/16 09:45:56;;;;;;;10.35;1.50;;;;;;;;;;5080333;28;20040;-79
2024/01/16 09:48:23;;;;;;;6.55;1.70;;;;;;;;;;5076040;28;20511;-79
2024/01/16 09:50:49;;;;;;;5.03;1.38;;;;;;;;;;5083378;28;20426;-78
2024/01/16 09:53:15;;;;;;;6.30;1.65;;;;;;;;;;5097563;28;20047;-78
2024/01/16 09:55:41;;;;;;;6.05;1.40;;;;;;;;;;5076804;28;20832;-78
2024/01/16 09:58:12;;;;;;;7.38;1.48;;;;;;;;;;5080367;28;20484;-78
2024/01/16 10:00:39;;;;;;;3.05;1.05;;;;;;;;;;5078741;28;20045;-79
2024/01/16 10:03:05;;;;;;;13.27;2.60;;;;;;;;;;5051335;28;20115;-78
2024/01/16 10:05:31;;;;;;;8.23;1.30;;;;;;;;;;5089637;28;20459;-77
2024/01/16 10:07:57;;;;;;;12.00;2.83;;;;;;;;;;5068170;28;20067;-78
2024/01/16 10:10:28;;;;;;;5.82;1.27;;;;;;;;;;5072467;28;20035;-78
2024/01/16 10:12:54;;;;;;;4.13;1.33;;;;;;;;;;5067135;28;20440;-79
2024/01/16 10:15:20;;;;;;;7.40;1.48;;;;;;;;;;5076240;28;20092;-78
2024/01/16 10:17:46;;;;;;;5.68;1.73;;;;;;;;;;5071689;28;20063;-78
2024/01/16 10:20:13;;;;;;;1.92;0.90;;;;;;;;;;5092147;28;20032;-78
2024/01/16 10:22:39;;;;;;;7.68;1.52;;;;;;;;;;5062918;28;20058;-82
2024/01/16 10:25:09;;;;;;;7.50;1.40;;;;;;;;;;5082544;28;20043;-80
2024/01/16 10:27:36;;;;;;;5.28;1.05;;;;;;;;;;5081611;28;20038;-79
2024/01/16 10:30:05;;;;;;;2.60;0.98;;;;;;;;;;5075038;28;20066;-78
2024/01/16 10:32:32;;;;;;;3.55;1.00;;;;;;;;;;5066444;28;20043;-79
2024/01/16 10:35:11;;;;;;;9.07;1.20;;;;;;;;;;5078656;28;20119;-77
2024/01/16 10:37:54;;;;;;;6.30;1.17;;;;;;;;;;5066080;28;20079;-78
2024/01/16 10:40:21;;;;;;;2.85;1.02;;;;;;;;;;5073939;28;20039;-80
2024/01/16 10:42:57;;;;;;;3.03;1.25;;;;;;;;;;5084742;28;20044;-79
2024/01/16 10:45:25;;;;;;;5.53;1.25;;;;;;;;;;5065978;28;20106;-81
2024/01/16 10:48:07;;;;;;;4.43;1.92;;;;;;;;;;5074178;28;20043;-80
2024/01/16 10:50:34;;;;;;;6.25;1.60;;;;;;;;;;5097687;28;20047;-78
2024/01/16 10:53:01;;;;;;;3.15;1.10;;;;;;;;;;5073670;28;20035;-80
2024/01/16 10:55:29;;;;;;;7.43;1.20;;;;;;;;;;5080034;28;20170;-78
2024/01/16 10:58:00;;;;;;;6.40;1.92;;;;;;;;;;5094913;28;20144;-79
2024/01/16 11:00:27;;;;;;;8.38;1.35;;;;;;;;;;5084960;28;20036;-79
2024/01/16 11:03:02;;;;;;;2.17;1.00;;;;;;;;;;5086974;28;20472;-79
2024/01/16 11:05:33;;;;;;;4.63;1.38;;;;;;;;;;5072488;28;20040;-78
2024/01/16 11:08:01;;;;;;;4.63;0.90;;;;;;;;;;5076449;28;20545;-80
2024/01/16 11:10:27;;;;;;;7.30;1.30;;;;;;;;;;5073922;28;20040;-79
2024/01/16 11:12:54;;;;;;;3.58;1.30;;;;;;;;;;5086434;28;20071;-81
2024/01/16 11:15:42;;;;;;;6.97;1.10;;;;;;;;;;5082458;27;20509;-80
2024/01/16 11:18:09;;;;;;;6.25;1.20;;;;;;;;;;5075696;28;20062;-80
2024/01/16 11:20:35;;;;;;;2.85;0.88;;;;;;;;;;5068495;28;20059;-80
2024/01/16 11:23:02;;;;;;;4.25;0.93;;;;;;;;;;5071680;28;20044;-80
2024/01/16 11:25:32;;;;;;;2.55;1.10;;;;;;;;;;5057412;28;20032;-80
2024/01/16 11:28:08;;;;;;;3.63;0.95;;;;;;;;;;5068823;28;20060;-80
2024/01/16 11:30:35;;;;;;;3.42;0.90;;;;;;;;;;5045555;28;20037;-80
2024/01/16 11:33:01;;;;;;;1.05;0.63;;;;;;;;;;5058662;28;20036;-78
2024/01/16 11:35:33;;;;;;;1.13;0.93;;;;;;;;;;5068021;28;20140;-78
2024/01/16 11:38:10;;;;;;;5.78;1.13;;;;;;;;;;5066767;28;20044;-79
2024/01/16 11:40:37;;;;;;;4.32;1.52;;;;;;;;;;5046837;28;20507;-79
2024/01/16 11:43:22;;;;;;;6.10;1.58;;;;;;;;;;5061657;28;20072;-81
2024/01/16 11:45:49;;;;;;;6.88;1.42;;;;;;;;;;5079704;28;20545;-81
2024/01/16 11:48:16;;;;;;;2.25;1.30;;;;;;;;;;5051167;28;20459;-81
2024/01/16 11:50:43;;;;;;;6.65;1.50;;;;;;;;;;5060919;28;20714;-81
2024/01/16 11:53:09;;;;;;;8.00;1.35;;;;;;;;;;5033856;28;20119;-81
2024/01/16 11:55:37;;;;;;;8.40;1.58;;;;;;;;;;5052020;28;20134;-83
2024/01/16 11:58:30;;;;;;;5.63;1.95;;;;;;;;;;5058276;28;20036;-80
2024/01/16 12:00:57;;;;;;;1.10;0.77;;;;;;;;;;5040493;28;20053;-82
2024/01/16 12:03:23;;;;;;;2.65;1.45;;;;;;;;;;5066166;28;20389;-82
2024/01/16 12:05:59;;;;;;;3.40;1.35;;;;;;;;;;5053199;28;20033;-81
2024/01/16 12:08:26;;;;;;;5.32;1.83;;;;;;;;;;5048202;28;20041;-82
2024/01/16 12:10:52;;;;;;;4.15;2.00;;;;;;;;;;5061265;28;20112;-80
2024/01/16 12:13:18;;;;;;;4.13;2.15;;;;;;;;;;5043651;28;20504;-80
2024/01/16 12:15:46;;;;;;;5.68;2.03;;;;;;;;;;5049477;28;20099;-81
2024/01/16 12:18:18;;;;;;;5.72;2.42;;;;;;;;;;5047425;28;20029;-81
2024/01/16 12:20:44;;;;;;;8.95;3.20;;;;;;;;;;5048511;28;20047;-82
2024/01/16 12:23:10;;;;;;;6.38;2.65;;;;;;;;;;5057485;28;20483;-81
2024/01/16 12:25:37;;;;;;;4.68;2.78;;;;;;;;;;5062026;28;20040;-81
2024/01/16 12:28:05;;;;;;;5.75;3.00;;;;;;;;;;5032996;28;20480;-80
2024/01/16 12:30:35;;;;;;;7.03;3.17;;;;;;;;;;5064344;28;20415;-80
2024/01/16 12:33:08;;;;;;;6.22;3.15;;;;;;;;;;5054325;28;20041;-82
2024/01/16 12:35:38;;;;;;;7.35;2.55;;;;;;;;;;5056708;28;20044;-81
2024/01/16 12:38:05;;;;;;;6.35;3.28;;;;;;;;;;5033970;28;20079;-81
2024/01/16 12:40:32;;;;;;;4.82;2.20;;;;;;;;;;5041364;28;20033;-82
2024/01/16 12:42:58;;;;;;;4.55;2.70;;;;;;;;;;5056109;28;20040;-81
2024/01/16 12:45:24;;;;;;;6.18;2.55;;;;;;;;;;5035913;28;20072;-82
2024/01/16 12:47:52;;;;;;;7.65;2.30;;;;;;;;;;5051676;28;21370;-80
2024/01/16 12:50:22;;;;;;;7.55;2.42;;;;;;;;;;5047791;28;20536;-80
2024/01/16 12:52:50;;;;;;;4.43;2.28;;;;;;;;;;5063558;28;20044;-81
2024/01/16 12:55:17;;;;;;;5.47;1.95;;;;;;;;;;5063107;28;20510;-82
2024/01/16 12:57:44;;;;;;;6.05;2.28;;;;;;;;;;5059430;28;20775;-81
2024/01/16 13:00:26;;;;;;;1.80;1.67;;;;;;;;;;5055251;28;20115;-82
2024/01/16 13:02:55;;;;;;;2.75;1.38;;;;;;;;;;5047658;28;20041;-81
2024/01/16 13:05:21;;;;;;;3.42;1.83;;;;;;;;;;5065640;28;20041;-81
2024/01/16 13:07:59;;;;;;;6.68;1.40;;;;;;;;;;5039462;28;20598;-76
2024/01/16 13:10:26;;;;;;;6.50;2.05;;;;;;;;;;5051602;28;20052;-75
2024/01/16 13:12:52;;;;;;;6.40;2.10;;;;;;;;;;5037634;28;20075;-73
2024/01/16 13:15:18;;;;;;;4.18;1.75;;;;;;;;;;5031107;28;20049;-74
2024/01/16 13:17:45;;;;;;;5.68;2.00;;;;;;;;;;5025928;28;20075;-73
2024/01/16 13:20:13;;;;;;;4.93;1.83;;;;;;;;;;5025710;28;20399;-74
2024/01/16 13:22:39;;;;;;;4.75;1.75;;;;;;;;;;5051586;28;20036;-73
2024/01/16 13:25:05;;;;;;;4.88;2.13;;;;;;;;;;5028415;28;20072;-72
2024/01/16 13:27:32;;;;;;;4.78;2.38;;;;;;;;;;5047889;28;20041;-74
2024/01/16 13:29:58;;;;;;;7.13;2.80;;;;;;;;;;5054199;28;20139;-73
2024/01/16 13:32:26;;;;;;;7.85;2.50;;;;;;;;;;5032133;28;20048;-73
2024/01/16 13:34:52;;;;;;;11.15;3.15;;;;;;;;;;5037782;28;20097;-74
2024/01/16 13:37:21;;;;;;;9.00;3.33;;;;;;;;;;5051148;28;20041;-74
2024/01/16 13:39:47;;;;;;;7.22;2.53;;;;;;;;;;5032394;28;20127;-75
2024/01/16 13:42:18;;;;;;;5.70;2.63;;;;;;;;;;5049861;28;20086;-77
2024/01/16 13:44:44;;;;;;;8.13;3.28;;;;;;;;;;5034884;28;20485;-75
2024/01/16 13:47:10;;;;;;;8.13;3.25;;;;;;;;;;5035185;28;20044;-74
2024/01/16 13:49:36;;;;;;;9.00;3.55;;;;;;;;;;5044998;28;20036;-74
2024/01/16 13:52:03;;;;;;;11.40;4.28;;;;;;;;;;5049431;28;20373;-73
2024/01/16 13:54:29;;;;;;;8.15;4.05;;;;;;;;;;5015672;28;20041;-75
2024/01/16 13:56:55;;;;;;;15.30;4.50;;;;;;;;;;5047948;28;20036;-74
2024/01/16 13:59:21;;;;;;;9.55;3.80;;;;;;;;;;5049290;28;20039;-75
2024/01/16 14:01:47;;;;;;;13.30;4.13;;;;;;;;;;5052155;28;20045;-74
2024/01/16 14:04:13;;;;;;;8.77;3.35;;;;;;;;;;5054227;28;20044;-74
2024/01/16 14:06:39;;;;;;;21.15;4.10;;;;;;;;;;5050897;28;20122;-75
2024/01/16 14:09:09;;;;;;;10.00;3.22;;;;;;;;;;5052401;28;20037;-75
2024/01/16 14:11:35;;;;;;;4.85;3.45;;;;;;;;;;5062292;28;20522;-75
2024/01/16 14:14:01;;;;;;;10.13;2.95;;;;;;;;;;5050043;28;20049;-75
2024/01/16 14:16:30;;;;;;;12.82;4.00;;;;;;;;;;5035532;28;20044;-74
2024/01/16 14:18:56;;;;;;;5.97;3.10;;;;;;;;;;5023522;28;20453;-75
2024/01/16 14:21:22;;;;;;;11.65;3.85;;;;;;;;;;5050020;28;20028;-74
2024/01/16 14:23:48;;;;;;;6.55;3.63;;;;;;;;;;5017730;28;20049;-78
2024/01/16 14:26:15;;;;;;;12.05;3.47;;;;;;;;;;5031325;28;20033;-79
2024/01/16 14:28:42;;;;;;;7.55;3.67;;;;;;;;;;5032700;28;20047;-77
2024/01/16 14:31:08;;;;;;;9.05;4.00;;;;;;;;;;5045056;28;20049;-77
2024/01/16 14:33:35;;;;;;;11.90;3.17;;;;;;;;;;5047937;28;20542;-78
2024/01/16 14:36:01;;;;;;;10.85;3.33;;;;;;;;;;5047823;28;20133;-79
2024/01/16 14:38:27;;;;;;;9.25;3.72;;;;;;;;;;5048658;28;20032;-75